sensor_id;sensor_type;location;lat;lon;timestamp;P1;durP1;ratioP1;P2;durP2;ratioP2
23868;SDS011;12115;47.128;15.422;2024-03-02T00:01:21;55.58;;;34.50;;
23868;SDS011;12115;47.128;15.422;2024-03-02T00:03:49;47.92;;;32.25;;
23868;SDS011;12115;47.128;15.422;2024-03-02T00:06:18;53.22;;;32.83;;
23868;SDS011;12115;47.128;15.422;2024-03-02T00:08:47;53.80;;;34.30;;
23868;SDS011;12115;47.128;15.422;2024-03-02T00:11:14;52.22;;;33.47;;
23868;SDS011;12115;47.128;15.422;2024-03-02T00:13:42;59.40;;;36.28;;
23868;SDS011;12115;47.128;15.422;2024-03-02T00:16:10;53.50;;;36.45;;
23868;SDS011;12115;47.128;15.422;2024-03-02T00:18:37;54.20;;;35.63;;
23868;SDS011;12115;47.128;15.422;2024-03-02T00:21:05;56.70;;;37.17;;
23868;SDS011;12115;47.128;15.422;2024-03-02T00:23:36;58.72;;;38.35;;
23868;SDS011;12115;47.128;15.422;2024-03-02T00:26:05;66.65;;;40.95;;
23868;SDS011;12115;47.128;15.422;2024-03-02T00:33:36;69.68;;;43.17;;
23868;SDS011;12115;47.128;15.422;2024-03-02T00:36:15;69.43;;;43.08;;
23868;SDS011;12115;47.128;15.422;2024-03-02T00:38:46;65.35;;;39.58;;
23868;SDS011;12115;47.128;15.422;2024-03-02T00:41:27;71.10;;;42.70;;
23868;SDS011;12115;47.128;15.422;2024-03-02T00:43:57;69.30;;;42.40;;
23868;SDS011;12115;47.128;15.422;2024-03-02T00:46:33;66.68;;;40.20;;
23868;SDS011;12115;47.128;15.422;2024-03-02T00:51:38;73.88;;;43.78;;
23868;SDS011;12115;47.128;15.422;2024-03-02T00:54:07;68.75;;;41.10;;
23868;SDS011;12115;47.128;15.422;2024-03-02T00:56:35;66.10;;;40.17;;
23868;SDS011;12115;47.128;15.422;2024-03-02T00:59:03;70.07;;;41.67;;
23868;SDS011;12115;47.128;15.422;2024-03-02T01:01:30;73.47;;;41.88;;
23868;SDS011;12115;47.128;15.422;2024-03-02T01:03:57;69.63;;;43.50;;
23868;SDS011;12115;47.128;15.422;2024-03-02T01:06:25;65.45;;;40.47;;
23868;SDS011;12115;47.128;15.422;2024-03-02T01:08:52;70.05;;;41.65;;
23868;SDS011;12115;47.128;15.422;2024-03-02T01:11:20;63.00;;;39.80;;
23868;SDS011;12115;47.128;15.422;2024-03-02T01:13:50;62.55;;;38.58;;
23868;SDS011;12115;47.128;15.422;2024-03-02T01:16:19;65.78;;;38.70;;
23868;SDS011;12115;47.128;15.422;2024-03-02T01:18:46;54.95;;;33.88;;
23868;SDS011;12115;47.128;15.422;2024-03-02T01:21:14;60.20;;;35.78;;
23868;SDS011;12115;47.128;15.422;2024-03-02T01:23:41;52.13;;;32.60;;
23868;SDS011;12115;47.128;15.422;2024-03-02T01:26:09;53.30;;;33.03;;
23868;SDS011;12115;47.128;15.422;2024-03-02T01:28:36;58.63;;;35.58;;
23868;SDS011;12115;47.128;15.422;2024-03-02T01:31:03;58.80;;;36.20;;
23868;SDS011;12115;47.128;15.422;2024-03-02T01:33:30;53.95;;;35.25;;
23868;SDS011;12115;47.128;15.422;2024-03-02T01:35:57;67.47;;;37.85;;
23868;SDS011;12115;47.128;15.422;2024-03-02T01:38:24;53.75;;;31.80;;
23868;SDS011;12115;47.128;15.422;2024-03-02T01:40:51;55.63;;;33.13;;
23868;SDS011;12115;47.128;15.422;2024-03-02T01:43:20;53.47;;;33.42;;
23868;SDS011;12115;47.128;15.422;2024-03-02T01:45:47;56.10;;;33.13;;
23868;SDS011;12115;47.128;15.422;2024-03-02T01:48:14;55.03;;;33.70;;
23868;SDS011;12115;47.128;15.422;2024-03-02T01:50:42;52.40;;;31.48;;
23868;SDS011;12115;47.128;15.422;2024-03-02T01:53:09;50.75;;;31.25;;
23868;SDS011;12115;47.128;15.422;2024-03-02T01:55:36;53.80;;;32.47;;
23868;SDS011;12115;47.128;15.422;2024-03-02T01:58:03;53.88;;;32.15;;
23868;SDS011;12115;47.128;15.422;2024-03-02T02:00:31;56.55;;;33.42;;
23868;SDS011;12115;47.128;15.422;2024-03-02T02:02:59;53.22;;;32.80;;
23868;SDS011;12115;47.128;15.422;2024-03-02T02:05:26;55.53;;;32.80;;
23868;SDS011;12115;47.128;15.422;2024-03-02T02:07:53;51.10;;;31.80;;
23868;SDS011;12115;47.128;15.422;2024-03-02T02:10:20;54.95;;;32.92;;
23868;SDS011;12115;47.128;15.422;2024-03-02T02:12:47;55.95;;;32.85;;
23868;SDS011;12115;47.128;15.422;2024-03-02T02:15:28;58.53;;;34.65;;
23868;SDS011;12115;47.128;15.422;2024-03-02T02:17:57;59.65;;;35.30;;
23868;SDS011;12115;47.128;15.422;2024-03-02T02:20:26;57.78;;;34.33;;
23868;SDS011;12115;47.128;15.422;2024-03-02T02:22:56;53.47;;;31.73;;
23868;SDS011;12115;47.128;15.422;2024-03-02T02:25:24;53.53;;;34.30;;
23868;SDS011;12115;47.128;15.422;2024-03-02T02:27:52;60.67;;;35.38;;
23868;SDS011;12115;47.128;15.422;2024-03-02T02:30:21;58.15;;;35.00;;
23868;SDS011;12115;47.128;15.422;2024-03-02T02:32:50;61.13;;;36.60;;
23868;SDS011;12115;47.128;15.422;2024-03-02T02:35:17;57.08;;;34.30;;
23868;SDS011;12115;47.128;15.422;2024-03-02T02:37:45;60.78;;;36.17;;
23868;SDS011;12115;47.128;15.422;2024-03-02T02:40:13;53.50;;;35.15;;
23868;SDS011;12115;47.128;15.422;2024-03-02T02:42:41;54.63;;;34.38;;
23868;SDS011;12115;47.128;15.422;2024-03-02T02:45:08;54.47;;;34.38;;
23868;SDS011;12115;47.128;15.422;2024-03-02T02:47:35;56.25;;;33.88;;
23868;SDS011;12115;47.128;15.422;2024-03-02T02:50:03;56.42;;;33.78;;
23868;SDS011;12115;47.128;15.422;2024-03-02T02:52:31;55.60;;;33.85;;
23868;SDS011;12115;47.128;15.422;2024-03-02T02:54:59;53.60;;;35.13;;
23868;SDS011;12115;47.128;15.422;2024-03-02T02:57:26;55.70;;;33.75;;
23868;SDS011;12115;47.128;15.422;2024-03-02T02:59:54;54.60;;;33.05;;
23868;SDS011;12115;47.128;15.422;2024-03-02T03:02:21;53.63;;;32.25;;
23868;SDS011;12115;47.128;15.422;2024-03-02T03:04:48;51.33;;;32.40;;
23868;SDS011;12115;47.128;15.422;2024-03-02T03:07:15;52.53;;;31.08;;
23868;SDS011;12115;47.128;15.422;2024-03-02T03:09:42;48.38;;;30.63;;
23868;SDS011;12115;47.128;15.422;2024-03-02T03:12:09;47.65;;;32.67;;
23868;SDS011;12115;47.128;15.422;2024-03-02T03:14:37;54.45;;;32.40;;
23868;SDS011;12115;47.128;15.422;2024-03-02T03:17:04;51.38;;;33.45;;
23868;SDS011;12115;47.128;15.422;2024-03-02T03:19:31;51.78;;;32.20;;
23868;SDS011;12115;47.128;15.422;2024-03-02T03:21:58;53.53;;;32.58;;
23868;SDS011;12115;47.128;15.422;2024-03-02T03:24:26;54.67;;;32.78;;
23868;SDS011;12115;47.128;15.422;2024-03-02T03:26:53;52.35;;;32.53;;
23868;SDS011;12115;47.128;15.422;2024-03-02T03:29:20;58.65;;;34.53;;
23868;SDS011;12115;47.128;15.422;2024-03-02T03:31:47;45.95;;;30.42;;
23868;SDS011;12115;47.128;15.422;2024-03-02T03:34:14;48.85;;;30.73;;
23868;SDS011;12115;47.128;15.422;2024-03-02T03:36:42;51.40;;;31.17;;
23868;SDS011;12115;47.128;15.422;2024-03-02T03:39:10;50.05;;;30.67;;
23868;SDS011;12115;47.128;15.422;2024-03-02T03:41:37;45.05;;;28.98;;
23868;SDS011;12115;47.128;15.422;2024-03-02T03:44:04;46.85;;;29.05;;
23868;SDS011;12115;47.128;15.422;2024-03-02T03:46:31;48.50;;;31.08;;
23868;SDS011;12115;47.128;15.422;2024-03-02T03:48:58;44.97;;;28.52;;
23868;SDS011;12115;47.128;15.422;2024-03-02T03:51:25;47.72;;;28.60;;
23868;SDS011;12115;47.128;15.422;2024-03-02T03:53:52;50.63;;;32.70;;
23868;SDS011;12115;47.128;15.422;2024-03-02T03:56:19;43.97;;;28.85;;
23868;SDS011;12115;47.128;15.422;2024-03-02T03:58:46;44.28;;;29.70;;
23868;SDS011;12115;47.128;15.422;2024-03-02T04:01:13;47.13;;;30.23;;
23868;SDS011;12115;47.128;15.422;2024-03-02T04:03:41;44.17;;;29.60;;
23868;SDS011;12115;47.128;15.422;2024-03-02T04:06:08;50.97;;;29.58;;
23868;SDS011;12115;47.128;15.422;2024-03-02T04:08:35;47.08;;;29.80;;
23868;SDS011;12115;47.128;15.422;2024-03-02T04:11:02;45.13;;;29.05;;
23868;SDS011;12115;47.128;15.422;2024-03-02T04:13:30;45.88;;;29.05;;
23868;SDS011;12115;47.128;15.422;2024-03-02T04:15:57;47.63;;;30.98;;
23868;SDS011;12115;47.128;15.422;2024-03-02T04:18:25;49.53;;;29.95;;
23868;SDS011;12115;47.128;15.422;2024-03-02T04:20:52;45.88;;;30.05;;
23868;SDS011;12115;47.128;15.422;2024-03-02T04:23:19;44.65;;;28.42;;
23868;SDS011;12115;47.128;15.422;2024-03-02T04:25:47;44.28;;;28.23;;
23868;SDS011;12115;47.128;15.422;2024-03-02T04:28:14;49.60;;;28.67;;
23868;SDS011;12115;47.128;15.422;2024-03-02T04:30:41;46.35;;;29.40;;
23868;SDS011;12115;47.128;15.422;2024-03-02T04:33:08;52.13;;;29.83;;
23868;SDS011;12115;47.128;15.422;2024-03-02T04:35:36;44.60;;;28.45;;
23868;SDS011;12115;47.128;15.422;2024-03-02T04:38:03;40.53;;;26.05;;
23868;SDS011;12115;47.128;15.422;2024-03-02T04:40:30;43.63;;;27.55;;
23868;SDS011;12115;47.128;15.422;2024-03-02T04:42:58;45.53;;;28.20;;
23868;SDS011;12115;47.128;15.422;2024-03-02T04:45:27;43.88;;;27.05;;
23868;SDS011;12115;47.128;15.422;2024-03-02T04:47:54;39.72;;;25.17;;
23868;SDS011;12115;47.128;15.422;2024-03-02T04:50:21;41.85;;;25.55;;
23868;SDS011;12115;47.128;15.422;2024-03-02T04:52:48;39.75;;;23.85;;
23868;SDS011;12115;47.128;15.422;2024-03-02T04:55:15;34.67;;;21.48;;
23868;SDS011;12115;47.128;15.422;2024-03-02T04:57:45;34.00;;;21.05;;
23868;SDS011;12115;47.128;15.422;2024-03-02T05:00:13;35.60;;;20.75;;
23868;SDS011;12115;47.128;15.422;2024-03-02T05:02:41;28.77;;;19.35;;
23868;SDS011;12115;47.128;15.422;2024-03-02T05:05:08;34.30;;;21.10;;
23868;SDS011;12115;47.128;15.422;2024-03-02T05:07:35;33.35;;;21.23;;
23868;SDS011;12115;47.128;15.422;2024-03-02T05:10:02;30.35;;;20.33;;
23868;SDS011;12115;47.128;15.422;2024-03-02T05:12:29;34.28;;;22.27;;
23868;SDS011;12115;47.128;15.422;2024-03-02T05:15:09;33.53;;;21.60;;
23868;SDS011;12115;47.128;15.422;2024-03-02T05:17:37;34.00;;;21.35;;
23868;SDS011;12115;47.128;15.422;2024-03-02T05:20:12;32.15;;;21.17;;
23868;SDS011;12115;47.128;15.422;2024-03-02T05:22:39;34.58;;;21.08;;
23868;SDS011;12115;47.128;15.422;2024-03-02T05:25:06;30.50;;;19.77;;
23868;SDS011;12115;47.128;15.422;2024-03-02T05:27:34;32.45;;;19.38;;
23868;SDS011;12115;47.128;15.422;2024-03-02T05:30:01;27.35;;;18.27;;
23868;SDS011;12115;47.128;15.422;2024-03-02T05:32:28;30.08;;;19.80;;
23868;SDS011;12115;47.128;15.422;2024-03-02T05:34:55;32.13;;;20.85;;
23868;SDS011;12115;47.128;15.422;2024-03-02T05:37:22;28.60;;;19.35;;
23868;SDS011;12115;47.128;15.422;2024-03-02T05:39:50;32.95;;;21.05;;
23868;SDS011;12115;47.128;15.422;2024-03-02T05:42:17;30.58;;;19.67;;
23868;SDS011;12115;47.128;15.422;2024-03-02T05:44:45;29.25;;;18.58;;
23868;SDS011;12115;47.128;15.422;2024-03-02T05:47:12;27.83;;;18.42;;
23868;SDS011;12115;47.128;15.422;2024-03-02T05:49:39;25.60;;;16.92;;
23868;SDS011;12115;47.128;15.422;2024-03-02T05:52:06;22.48;;;15.73;;
23868;SDS011;12115;47.128;15.422;2024-03-02T05:54:33;22.70;;;14.55;;
23868;SDS011;12115;47.128;15.422;2024-03-02T05:57:01;19.27;;;14.25;;
23868;SDS011;12115;47.128;15.422;2024-03-02T05:59:43;17.30;;;12.63;;
23868;SDS011;12115;47.128;15.422;2024-03-02T06:02:11;18.77;;;12.80;;
23868;SDS011;12115;47.128;15.422;2024-03-02T06:04:38;19.92;;;13.75;;
23868;SDS011;12115;47.128;15.422;2024-03-02T06:07:05;19.85;;;12.88;;
23868;SDS011;12115;47.128;15.422;2024-03-02T06:09:32;15.73;;;11.63;;
23868;SDS011;12115;47.128;15.422;2024-03-02T06:11:59;18.00;;;12.82;;
23868;SDS011;12115;47.128;15.422;2024-03-02T06:14:27;17.17;;;12.13;;
23868;SDS011;12115;47.128;15.422;2024-03-02T06:16:54;17.88;;;11.98;;
23868;SDS011;12115;47.128;15.422;2024-03-02T06:19:21;17.95;;;12.48;;
23868;SDS011;12115;47.128;15.422;2024-03-02T06:21:48;19.98;;;12.73;;
23868;SDS011;12115;47.128;15.422;2024-03-02T06:24:15;18.50;;;12.95;;
23868;SDS011;12115;47.128;15.422;2024-03-02T06:26:42;20.23;;;13.75;;
23868;SDS011;12115;47.128;15.422;2024-03-02T06:29:09;21.90;;;13.60;;
23868;SDS011;12115;47.128;15.422;2024-03-02T06:31:36;21.85;;;12.75;;
23868;SDS011;12115;47.128;15.422;2024-03-02T06:34:03;19.17;;;13.55;;
23868;SDS011;12115;47.128;15.422;2024-03-02T06:36:31;19.15;;;12.73;;
23868;SDS011;12115;47.128;15.422;2024-03-02T06:38:58;20.33;;;13.48;;
23868;SDS011;12115;47.128;15.422;2024-03-02T06:41:26;18.92;;;13.80;;
23868;SDS011;12115;47.128;15.422;2024-03-02T06:43:53;21.35;;;14.77;;
23868;SDS011;12115;47.128;15.422;2024-03-02T06:46:26;18.90;;;14.40;;
23868;SDS011;12115;47.128;15.422;2024-03-02T06:48:53;20.30;;;14.00;;
23868;SDS011;12115;47.128;15.422;2024-03-02T06:51:21;20.15;;;12.50;;
23868;SDS011;12115;47.128;15.422;2024-03-02T06:53:48;21.73;;;14.88;;
23868;SDS011;12115;47.128;15.422;2024-03-02T06:56:15;19.08;;;13.98;;
23868;SDS011;12115;47.128;15.422;2024-03-02T06:58:42;20.23;;;13.75;;
23868;SDS011;12115;47.128;15.422;2024-03-02T07:01:09;20.33;;;14.55;;
23868;SDS011;12115;47.128;15.422;2024-03-02T07:03:36;20.13;;;13.77;;
23868;SDS011;12115;47.128;15.422;2024-03-02T07:06:05;20.75;;;14.10;;
23868;SDS011;12115;47.128;15.422;2024-03-02T07:08:33;23.80;;;16.83;;
23868;SDS011;12115;47.128;15.422;2024-03-02T07:11:00;22.92;;;16.20;;
23868;SDS011;12115;47.128;15.422;2024-03-02T07:13:27;23.30;;;16.02;;
23868;SDS011;12115;47.128;15.422;2024-03-02T07:15:54;21.48;;;13.90;;
23868;SDS011;12115;47.128;15.422;2024-03-02T07:18:48;20.65;;;14.05;;
23868;SDS011;12115;47.128;15.422;2024-03-02T07:21:18;19.80;;;13.60;;
23868;SDS011;12115;47.128;15.422;2024-03-02T07:23:46;19.85;;;14.25;;
23868;SDS011;12115;47.128;15.422;2024-03-02T07:26:13;21.70;;;14.75;;
23868;SDS011;12115;47.128;15.422;2024-03-02T07:28:45;20.60;;;14.93;;
23868;SDS011;12115;47.128;15.422;2024-03-02T07:31:14;19.10;;;14.38;;
23868;SDS011;12115;47.128;15.422;2024-03-02T07:33:43;20.63;;;15.07;;
23868;SDS011;12115;47.128;15.422;2024-03-02T07:36:12;22.17;;;15.43;;
23868;SDS011;12115;47.128;15.422;2024-03-02T07:38:42;22.92;;;15.40;;
23868;SDS011;12115;47.128;15.422;2024-03-02T07:41:11;21.95;;;14.48;;
23868;SDS011;12115;47.128;15.422;2024-03-02T07:43:38;23.85;;;15.27;;
23868;SDS011;12115;47.128;15.422;2024-03-02T07:46:06;25.00;;;15.68;;
23868;SDS011;12115;47.128;15.422;2024-03-02T07:48:33;21.77;;;15.13;;
23868;SDS011;12115;47.128;15.422;2024-03-02T07:51:00;22.48;;;15.77;;
23868;SDS011;12115;47.128;15.422;2024-03-02T07:53:29;26.42;;;17.15;;
23868;SDS011;12115;47.128;15.422;2024-03-02T07:55:56;22.63;;;15.68;;
23868;SDS011;12115;47.128;15.422;2024-03-02T07:58:28;20.90;;;15.15;;
23868;SDS011;12115;47.128;15.422;2024-03-02T08:00:57;20.15;;;14.55;;
23868;SDS011;12115;47.128;15.422;2024-03-02T08:03:24;17.75;;;15.20;;
23868;SDS011;12115;47.128;15.422;2024-03-02T08:05:51;17.80;;;14.05;;
23868;SDS011;12115;47.128;15.422;2024-03-02T08:08:19;19.67;;;14.77;;
23868;SDS011;12115;47.128;15.422;2024-03-02T08:10:46;22.00;;;15.32;;
23868;SDS011;12115;47.128;15.422;2024-03-02T08:13:13;21.10;;;14.90;;
23868;SDS011;12115;47.128;15.422;2024-03-02T08:15:41;18.27;;;14.50;;
23868;SDS011;12115;47.128;15.422;2024-03-02T08:18:08;19.35;;;13.93;;
23868;SDS011;12115;47.128;15.422;2024-03-02T08:20:35;17.75;;;14.68;;
23868;SDS011;12115;47.128;15.422;2024-03-02T08:23:03;18.73;;;14.07;;
23868;SDS011;12115;47.128;15.422;2024-03-02T08:25:30;17.48;;;14.20;;
23868;SDS011;12115;47.128;15.422;2024-03-02T08:27:57;16.25;;;13.77;;
23868;SDS011;12115;47.128;15.422;2024-03-02T08:30:24;15.07;;;13.10;;
23868;SDS011;12115;47.128;15.422;2024-03-02T08:32:52;17.85;;;14.13;;
23868;SDS011;12115;47.128;15.422;2024-03-02T08:35:19;18.38;;;14.48;;
23868;SDS011;12115;47.128;15.422;2024-03-02T08:37:48;21.65;;;15.65;;
23868;SDS011;12115;47.128;15.422;2024-03-02T08:40:16;16.42;;;13.32;;
23868;SDS011;12115;47.128;15.422;2024-03-02T08:42:45;15.68;;;12.52;;
23868;SDS011;12115;47.128;15.422;2024-03-02T08:45:12;17.27;;;13.60;;
23868;SDS011;12115;47.128;15.422;2024-03-02T08:47:40;18.73;;;13.23;;
23868;SDS011;12115;47.128;15.422;2024-03-02T08:50:07;17.67;;;12.73;;
23868;SDS011;12115;47.128;15.422;2024-03-02T08:52:35;16.13;;;13.45;;
23868;SDS011;12115;47.128;15.422;2024-03-02T08:55:02;18.77;;;13.45;;
23868;SDS011;12115;47.128;15.422;2024-03-02T08:57:30;17.05;;;13.48;;
23868;SDS011;12115;47.128;15.422;2024-03-02T08:59:58;17.13;;;13.07;;
23868;SDS011;12115;47.128;15.422;2024-03-02T09:02:26;16.40;;;12.85;;
23868;SDS011;12115;47.128;15.422;2024-03-02T09:04:53;14.82;;;11.95;;
23868;SDS011;12115;47.128;15.422;2024-03-02T09:07:20;16.90;;;13.05;;
23868;SDS011;12115;47.128;15.422;2024-03-02T09:09:47;18.98;;;13.88;;
23868;SDS011;12115;47.128;15.422;2024-03-02T09:12:15;20.67;;;16.35;;
23868;SDS011;12115;47.128;15.422;2024-03-02T09:14:42;19.63;;;15.52;;
23868;SDS011;12115;47.128;15.422;2024-03-02T09:17:09;21.25;;;16.30;;
23868;SDS011;12115;47.128;15.422;2024-03-02T09:19:39;18.65;;;15.48;;
23868;SDS011;12115;47.128;15.422;2024-03-02T09:22:07;21.08;;;14.93;;
23868;SDS011;12115;47.128;15.422;2024-03-02T09:24:35;23.30;;;15.85;;
23868;SDS011;12115;47.128;15.422;2024-03-02T09:27:02;21.90;;;16.80;;
23868;SDS011;12115;47.128;15.422;2024-03-02T09:29:29;21.88;;;17.25;;
23868;SDS011;12115;47.128;15.422;2024-03-02T09:31:56;21.75;;;17.30;;
23868;SDS011;12115;47.128;15.422;2024-03-02T09:34:23;22.55;;;17.63;;
23868;SDS011;12115;47.128;15.422;2024-03-02T09:36:51;21.90;;;17.58;;
23868;SDS011;12115;47.128;15.422;2024-03-02T09:39:19;22.00;;;16.95;;
23868;SDS011;12115;47.128;15.422;2024-03-02T09:41:47;28.00;;;19.20;;
23868;SDS011;12115;47.128;15.422;2024-03-02T09:44:14;26.83;;;17.48;;
23868;SDS011;12115;47.128;15.422;2024-03-02T09:46:42;22.73;;;16.23;;
23868;SDS011;12115;47.128;15.422;2024-03-02T09:49:10;21.95;;;16.42;;
23868;SDS011;12115;47.128;15.422;2024-03-02T09:51:38;26.42;;;18.13;;
23868;SDS011;12115;47.128;15.422;2024-03-02T09:54:07;24.27;;;17.58;;
23868;SDS011;12115;47.128;15.422;2024-03-02T09:56:47;25.60;;;17.73;;
23868;SDS011;12115;47.128;15.422;2024-03-02T09:59:15;27.73;;;18.48;;
23868;SDS011;12115;47.128;15.422;2024-03-02T10:02:01;25.77;;;18.52;;
23868;SDS011;12115;47.128;15.422;2024-03-02T10:04:30;22.83;;;18.27;;
23868;SDS011;12115;47.128;15.422;2024-03-02T10:07:20;25.30;;;18.10;;
23868;SDS011;12115;47.128;15.422;2024-03-02T10:09:48;25.65;;;16.27;;
23868;SDS011;12115;47.128;15.422;2024-03-02T10:12:16;25.00;;;17.70;;
23868;SDS011;12115;47.128;15.422;2024-03-02T10:14:44;26.85;;;17.73;;
23868;SDS011;12115;47.128;15.422;2024-03-02T10:17:12;23.90;;;17.25;;
23868;SDS011;12115;47.128;15.422;2024-03-02T10:19:40;24.65;;;17.85;;
23868;SDS011;12115;47.128;15.422;2024-03-02T10:22:08;23.65;;;16.33;;
23868;SDS011;12115;47.128;15.422;2024-03-02T10:24:40;25.17;;;16.95;;
23868;SDS011;12115;47.128;15.422;2024-03-02T10:29:37;22.65;;;15.75;;
23868;SDS011;12115;47.128;15.422;2024-03-02T10:32:08;22.77;;;15.68;;
23868;SDS011;12115;47.128;15.422;2024-03-02T10:34:41;22.27;;;15.15;;
23868;SDS011;12115;47.128;15.422;2024-03-02T10:37:10;25.52;;;17.15;;
23868;SDS011;12115;47.128;15.422;2024-03-02T10:39:38;25.58;;;15.68;;
23868;SDS011;12115;47.128;15.422;2024-03-02T10:42:07;19.52;;;14.32;;
23868;SDS011;12115;47.128;15.422;2024-03-02T10:44:35;21.05;;;14.60;;
23868;SDS011;12115;47.128;15.422;2024-03-02T10:47:03;18.48;;;14.13;;
23868;SDS011;12115;47.128;15.422;2024-03-02T10:49:32;19.65;;;13.63;;
23868;SDS011;12115;47.128;15.422;2024-03-02T10:52:00;17.38;;;13.50;;
23868;SDS011;12115;47.128;15.422;2024-03-02T10:54:28;20.73;;;13.55;;
23868;SDS011;12115;47.128;15.422;2024-03-02T10:57:04;21.58;;;14.10;;
23868;SDS011;12115;47.128;15.422;2024-03-02T10:59:34;18.88;;;13.45;;
23868;SDS011;12115;47.128;15.422;2024-03-02T11:02:03;19.17;;;14.02;;
23868;SDS011;12115;47.128;15.422;2024-03-02T11:04:34;17.70;;;12.73;;
23868;SDS011;12115;47.128;15.422;2024-03-02T11:07:02;16.45;;;12.40;;
23868;SDS011;12115;47.128;15.422;2024-03-02T11:09:45;17.42;;;12.52;;
23868;SDS011;12115;47.128;15.422;2024-03-02T11:12:36;13.15;;;8.30;;
23868;SDS011;12115;47.128;15.422;2024-03-02T11:15:10;13.40;;;8.82;;
23868;SDS011;12115;47.128;15.422;2024-03-02T11:17:40;11.75;;;7.22;;
23868;SDS011;12115;47.128;15.422;2024-03-02T11:20:09;11.52;;;5.78;;
23868;SDS011;12115;47.128;15.422;2024-03-02T11:22:37;9.05;;;5.72;;
23868;SDS011;12115;47.128;15.422;2024-03-02T11:25:06;8.13;;;5.63;;
23868;SDS011;12115;47.128;15.422;2024-03-02T11:33:04;12.00;;;6.72;;
23868;SDS011;12115;47.128;15.422;2024-03-02T11:35:42;13.57;;;6.47;;
23868;SDS011;12115;47.128;15.422;2024-03-02T11:38:13;14.20;;;6.68;;
23868;SDS011;12115;47.128;15.422;2024-03-02T11:40:40;10.90;;;7.57;;
23868;SDS011;12115;47.128;15.422;2024-03-02T11:43:08;12.43;;;7.70;;
23868;SDS011;12115;47.128;15.422;2024-03-02T11:45:36;11.35;;;7.45;;
23868;SDS011;12115;47.128;15.422;2024-03-02T11:48:10;11.00;;;7.18;;
23868;SDS011;12115;47.128;15.422;2024-03-02T11:53:13;10.25;;;6.40;;
23868;SDS011;12115;47.128;15.422;2024-03-02T11:55:41;10.23;;;7.38;;
23868;SDS011;12115;47.128;15.422;2024-03-02T11:58:15;11.02;;;7.43;;
23868;SDS011;12115;47.128;15.422;2024-03-02T12:00:50;10.30;;;8.15;;
23868;SDS011;12115;47.128;15.422;2024-03-02T12:03:18;12.70;;;8.10;;
23868;SDS011;12115;47.128;15.422;2024-03-02T12:05:49;15.43;;;8.93;;
23868;SDS011;12115;47.128;15.422;2024-03-02T12:08:18;10.82;;;6.50;;
23868;SDS011;12115;47.128;15.422;2024-03-02T12:11:00;11.85;;;5.57;;
23868;SDS011;12115;47.128;15.422;2024-03-02T12:13:30;9.10;;;6.72;;
23868;SDS011;12115;47.128;15.422;2024-03-02T12:15:58;9.82;;;6.72;;
23868;SDS011;12115;47.128;15.422;2024-03-02T12:18:26;10.70;;;7.43;;
23868;SDS011;12115;47.128;15.422;2024-03-02T12:20:54;13.20;;;8.05;;
23868;SDS011;12115;47.128;15.422;2024-03-02T12:23:25;11.32;;;7.25;;
23868;SDS011;12115;47.128;15.422;2024-03-02T12:25:53;11.85;;;8.52;;
23868;SDS011;12115;47.128;15.422;2024-03-02T12:28:20;13.23;;;7.88;;
23868;SDS011;12115;47.128;15.422;2024-03-02T12:30:47;13.10;;;8.93;;
23868;SDS011;12115;47.128;15.422;2024-03-02T12:33:16;11.82;;;8.73;;
23868;SDS011;12115;47.128;15.422;2024-03-02T12:35:43;14.68;;;8.60;;
23868;SDS011;12115;47.128;15.422;2024-03-02T12:38:10;11.90;;;8.40;;
23868;SDS011;12115;47.128;15.422;2024-03-02T12:40:38;15.05;;;8.23;;
23868;SDS011;12115;47.128;15.422;2024-03-02T12:43:05;12.77;;;7.38;;
23868;SDS011;12115;47.128;15.422;2024-03-02T12:45:33;10.43;;;7.25;;
23868;SDS011;12115;47.128;15.422;2024-03-02T12:48:02;11.77;;;7.32;;
23868;SDS011;12115;47.128;15.422;2024-03-02T12:50:31;12.40;;;7.72;;
23868;SDS011;12115;47.128;15.422;2024-03-02T12:53:00;12.43;;;6.18;;
23868;SDS011;12115;47.128;15.422;2024-03-02T12:55:27;13.30;;;7.15;;
23868;SDS011;12115;47.128;15.422;2024-03-02T12:57:55;13.00;;;7.32;;
23868;SDS011;12115;47.128;15.422;2024-03-02T13:00:23;10.75;;;6.05;;
23868;SDS011;12115;47.128;15.422;2024-03-02T13:02:50;10.55;;;5.97;;
23868;SDS011;12115;47.128;15.422;2024-03-02T13:05:18;11.80;;;6.47;;
23868;SDS011;12115;47.128;15.422;2024-03-02T13:07:47;12.75;;;6.90;;
23868;SDS011;12115;47.128;15.422;2024-03-02T13:10:16;10.75;;;7.70;;
23868;SDS011;12115;47.128;15.422;2024-03-02T13:12:45;13.45;;;7.40;;
23868;SDS011;12115;47.128;15.422;2024-03-02T13:15:12;11.07;;;6.72;;
23868;SDS011;12115;47.128;15.422;2024-03-02T13:17:44;10.93;;;6.63;;
23868;SDS011;12115;47.128;15.422;2024-03-02T13:20:13;10.48;;;6.38;;
23868;SDS011;12115;47.128;15.422;2024-03-02T13:22:41;12.35;;;6.35;;
23868;SDS011;12115;47.128;15.422;2024-03-02T13:25:09;10.18;;;5.82;;
23868;SDS011;12115;47.128;15.422;2024-03-02T13:27:38;9.98;;;5.93;;
23868;SDS011;12115;47.128;15.422;2024-03-02T13:30:06;9.27;;;6.13;;
23868;SDS011;12115;47.128;15.422;2024-03-02T13:32:36;9.57;;;6.40;;
23868;SDS011;12115;47.128;15.422;2024-03-02T13:35:03;14.50;;;6.53;;
23868;SDS011;12115;47.128;15.422;2024-03-02T13:37:31;10.90;;;5.57;;
23868;SDS011;12115;47.128;15.422;2024-03-02T13:39:59;8.70;;;6.35;;
23868;SDS011;12115;47.128;15.422;2024-03-02T13:42:27;13.35;;;9.05;;
23868;SDS011;12115;47.128;15.422;2024-03-02T13:44:54;20.77;;;11.32;;
23868;SDS011;12115;47.128;15.422;2024-03-02T13:47:21;9.50;;;6.30;;
23868;SDS011;12115;47.128;15.422;2024-03-02T13:49:49;30.92;;;18.48;;
23868;SDS011;12115;47.128;15.422;2024-03-02T13:52:16;16.80;;;11.38;;
23868;SDS011;12115;47.128;15.422;2024-03-02T13:54:44;16.20;;;7.18;;
23868;SDS011;12115;47.128;15.422;2024-03-02T13:57:13;18.52;;;11.23;;
23868;SDS011;12115;47.128;15.422;2024-03-02T13:59:41;10.10;;;7.03;;
23868;SDS011;12115;47.128;15.422;2024-03-02T14:02:15;11.65;;;5.57;;
23868;SDS011;12115;47.128;15.422;2024-03-02T14:04:42;18.20;;;8.10;;
23868;SDS011;12115;47.128;15.422;2024-03-02T14:07:09;21.85;;;11.13;;
23868;SDS011;12115;47.128;15.422;2024-03-02T14:09:39;29.85;;;15.60;;
23868;SDS011;12115;47.128;15.422;2024-03-02T14:12:06;17.73;;;10.23;;
23868;SDS011;12115;47.128;15.422;2024-03-02T14:14:34;10.57;;;5.03;;
23868;SDS011;12115;47.128;15.422;2024-03-02T14:17:02;7.55;;;4.50;;
23868;SDS011;12115;47.128;15.422;2024-03-02T14:19:33;10.33;;;5.33;;
23868;SDS011;12115;47.128;15.422;2024-03-02T14:22:01;10.88;;;5.20;;
23868;SDS011;12115;47.128;15.422;2024-03-02T14:24:29;8.32;;;5.28;;
23868;SDS011;12115;47.128;15.422;2024-03-02T14:26:56;10.07;;;5.25;;
23868;SDS011;12115;47.128;15.422;2024-03-02T14:29:43;6.50;;;4.97;;
23868;SDS011;12115;47.128;15.422;2024-03-02T14:32:31;8.38;;;4.68;;
23868;SDS011;12115;47.128;15.422;2024-03-02T14:34:58;9.57;;;4.85;;
23868;SDS011;12115;47.128;15.422;2024-03-02T14:37:25;8.18;;;5.25;;